createdAt,value
2019-03-04T00:01:26.937Z,56.43
2019-03-04T00:06:23.860Z,56.89
2019-03-04T00:11:22.995Z,56.73
2019-03-04T00:16:20.100Z,56.04
2019-03-04T00:21:17.107Z,57.03
2019-03-04T00:26:14.026Z,56.27
2019-03-04T00:31:10.994Z,56.59
2019-03-04T00:36:07.949Z,56.59
2019-03-04T00:41:04.935Z,55.91
2019-03-04T00:46:01.857Z,56.61
2019-03-04T00:50:58.874Z,56.61
2019-03-04T00:55:55.879Z,55.59
2019-03-04T01:00:53.695Z,55.21
2019-03-04T01:05:50.626Z,55.86
2019-03-04T01:10:47.582Z,55.86
2019-03-04T01:15:45.906Z,55.60
2019-03-04T01:20:42.959Z,55.17
2019-03-04T01:25:39.920Z,54.92
2019-03-04T01:30:36.854Z,54.97
2019-03-04T01:35:33.778Z,54.55
2019-03-04T01:40:31.149Z,55.47
2019-03-04T01:45:28.053Z,55.35
2019-03-04T01:50:24.999Z,55.71
2019-03-04T01:55:21.920Z,56.08
2019-03-04T02:00:20.634Z,55.61
2019-03-04T02:05:17.747Z,55.47
2019-03-04T02:10:18.024Z,55.16
2019-03-04T02:15:19.822Z,54.89
2019-03-04T02:20:19.011Z,54.85
2019-03-04T02:25:42.551Z,54.71
2019-03-04T02:30:39.578Z,54.72
2019-03-04T02:35:36.560Z,54.54
2019-03-04T02:40:33.482Z,54.23
2019-03-04T02:45:30.459Z,54.64
2019-03-04T02:50:27.360Z,54.74
2019-03-04T02:55:24.359Z,55.48
2019-03-04T03:00:21.369Z,55.22
2019-03-04T03:05:18.362Z,55.25
2019-03-04T03:10:15.399Z,55.39
2019-03-04T03:15:15.059Z,54.42
2019-03-04T03:20:13.239Z,54.52
2019-03-04T03:25:13.655Z,54.68
2019-03-04T03:30:14.698Z,54.86
2019-03-04T03:35:12.229Z,54.31
2019-03-04T03:40:18.629Z,54.78
2019-03-04T03:45:15.643Z,54.69
2019-03-04T03:50:15.301Z,53.97
2019-03-04T03:55:14.738Z,53.90
2019-03-04T04:00:22.555Z,53.98
2019-03-04T04:05:20.094Z,53.96
2019-03-04T04:10:18.341Z,53.65
2019-03-04T04:15:18.098Z,53.37
2019-03-04T04:20:15.248Z,53.32
2019-03-04T04:25:12.711Z,53.47
2019-03-04T04:30:15.234Z,53.29
2019-03-04T04:35:12.144Z,52.91
2019-03-04T04:40:13.131Z,52.64
2019-03-04T04:45:10.261Z,52.96
2019-03-04T04:50:21.346Z,53.29
2019-03-04T04:55:18.307Z,52.61
2019-03-04T05:00:19.714Z,53.39
2019-03-04T05:05:16.641Z,52.77
2019-03-04T05:10:19.911Z,52.50
2019-03-04T05:15:17.237Z,52.43
2019-03-04T05:20:22.285Z,52.46
2019-03-04T05:25:19.294Z,52.24
2019-03-04T05:30:19.430Z,52.67
2019-03-04T05:35:16.364Z,53.36
2019-03-04T05:40:15.948Z,52.81
2019-03-04T05:45:17.170Z,52.90
2019-03-04T05:50:22.785Z,52.60
2019-03-04T05:55:19.715Z,52.85
2019-03-04T06:00:22.739Z,51.88
2019-03-04T06:05:19.659Z,51.66
2019-03-04T06:10:16.718Z,51.12
2019-03-04T06:15:16.746Z,50.66
2019-03-04T06:20:17.327Z,50.66
2019-03-04T06:25:23.917Z,50.15
2019-03-04T06:30:27.573Z,50.30
2019-03-04T06:35:24.554Z,50.05
2019-03-04T06:40:22.022Z,50.43
2019-03-04T06:45:21.895Z,48.91
2019-03-04T06:50:45.819Z,49.23
2019-03-04T06:56:06.625Z,48.78
2019-03-04T07:01:08.990Z,48.02
2019-03-04T07:06:07.849Z,48.47
2019-03-04T07:11:08.896Z,47.30
2019-03-04T07:16:05.911Z,48.05
2019-03-04T07:21:02.946Z,48.13
2019-03-04T07:26:03.405Z,47.45
2019-03-04T07:31:00.514Z,47.28
2019-03-04T07:35:59.105Z,47.02
2019-03-04T07:40:56.137Z,46.37
2019-03-04T07:45:53.118Z,46.33
2019-03-04T07:50:50.491Z,43.95
2019-03-04T07:55:47.520Z,43.41
2019-03-04T08:00:44.535Z,42.12
2019-03-04T08:05:41.461Z,41.85
2019-03-04T08:11:23.131Z,41.85
2019-03-04T08:16:20.068Z,41.89
2019-03-04T08:21:17.041Z,39.05
2019-03-04T08:26:14.015Z,37.74
2019-03-04T08:31:13.277Z,39.15
2019-03-04T08:36:13.153Z,37.81
2019-03-04T08:41:11.495Z,38.24
2019-03-04T08:46:08.452Z,38.64
2019-03-04T08:51:07.641Z,38.47
2019-03-04T08:56:04.728Z,37.37
2019-03-04T09:01:01.829Z,36.75
2019-03-04T09:06:00.241Z,37.75
2019-03-04T09:10:57.178Z,37.82
2019-03-04T09:15:56.267Z,37.71
2019-03-04T09:20:53.325Z,38.88
2019-03-04T09:26:03.479Z,38.55
2019-03-04T09:31:03.330Z,37.20
2019-03-04T09:36:01.312Z,37.12
2019-03-04T09:40:58.387Z,35.17
2019-03-04T09:45:58.572Z,35.56
2019-03-04T09:50:57.871Z,35.30
2019-03-04T09:55:55.292Z,36.67
2019-03-04T10:01:00.662Z,37.22
2019-03-04T10:06:18.420Z,36.89
2019-03-04T10:11:37.533Z,36.18
2019-03-04T10:17:13.595Z,35.16
2019-03-04T10:22:24.507Z,35.84
2019-03-04T10:27:52.260Z,34.50
2019-03-04T10:33:12.625Z,33.98
2019-03-04T10:38:30.518Z,33.25
2019-03-04T10:44:03.471Z,32.74
2019-03-04T10:49:02.292Z,32.27
2019-03-04T10:53:59.297Z,32.72
2019-03-04T10:58:58.599Z,32.61
2019-03-04T11:03:57.565Z,32.55
2019-03-04T11:08:54.854Z,32.04
2019-03-04T11:13:51.951Z,30.80
2019-03-04T11:18:49.002Z,31.14
2019-03-04T11:23:46.753Z,31.35
2019-03-04T11:28:43.836Z,30.88
2019-03-04T11:33:43.631Z,30.46
2019-03-04T11:38:52.857Z,30.53
2019-03-04T11:43:50.803Z,30.58
2019-03-04T11:48:47.846Z,31.62
2019-03-04T11:53:44.905Z,31.27
2019-03-04T11:58:42.863Z,31.73
2019-03-04T12:03:39.874Z,31.23
2019-03-04T12:08:45.008Z,32.01
2019-03-04T12:13:44.036Z,31.15
2019-03-04T12:18:40.971Z,30.95
2019-03-04T12:23:42.517Z,30.64
2019-03-04T12:28:39.673Z,31.58
2019-03-04T12:33:38.018Z,31.52
2019-03-04T12:38:35.059Z,31.12
2019-03-04T12:43:33.430Z,32.07
2019-03-04T12:48:32.889Z,33.70
2019-03-04T12:53:37.359Z,31.83
2019-03-04T12:58:30.884Z,31.69
2019-03-04T13:03:29.834Z,31.20
2019-03-04T13:08:26.872Z,30.37
2019-03-04T13:13:23.943Z,30.41
2019-03-04T13:18:21.067Z,30.75
2019-03-04T13:23:19.962Z,32.62
2019-03-04T13:28:25.351Z,31.50
2019-03-04T13:33:22.357Z,31.41
2019-03-04T13:38:21.180Z,31.81
2019-03-04T13:43:18.317Z,31.61
2019-03-04T13:48:24.998Z,31.80
2019-03-04T13:53:22.110Z,32.14
2019-03-04T13:58:24.824Z,31.69
2019-03-04T14:03:21.816Z,32.31
2019-03-04T14:08:20.553Z,33.18
2019-03-04T14:13:17.485Z,33.72
2019-03-04T14:18:15.081Z,33.48
2019-03-04T14:23:14.647Z,35.06
2019-03-04T14:28:16.989Z,34.64
2019-03-04T14:33:14.100Z,35.58
2019-03-04T14:38:11.285Z,36.08
2019-03-04T14:43:08.485Z,35.80
2019-03-04T14:48:06.797Z,36.00
2019-03-04T14:53:04.464Z,36.28
2019-03-04T14:58:02.125Z,36.51
2019-03-04T15:02:59.368Z,36.22
2019-03-04T15:07:56.460Z,36.43
2019-03-04T15:12:53.499Z,36.47
2019-03-04T15:17:50.712Z,36.44
2019-03-04T15:22:47.774Z,36.33
2019-03-04T15:27:45.710Z,36.09
2019-03-04T15:32:42.826Z,36.03
2019-03-04T15:37:40.145Z,36.02
2019-03-04T15:42:37.078Z,35.64
2019-03-04T15:47:34.096Z,36.11
2019-03-04T15:52:31.557Z,36.07
2019-03-04T15:57:28.675Z,36.09
2019-03-04T16:02:25.855Z,35.80
2019-03-04T16:07:23.014Z,36.32
2019-03-04T16:12:21.330Z,36.12
2019-03-04T16:17:18.624Z,36.16
2019-03-04T16:22:15.576Z,36.42
2019-03-04T16:27:12.611Z,36.34
2019-03-04T16:32:09.638Z,35.60
2019-03-04T16:37:08.170Z,35.76
2019-03-04T16:42:05.722Z,35.43
2019-03-04T16:47:02.929Z,35.06
2019-03-04T16:52:00.008Z,35.29
2019-03-04T16:56:58.619Z,35.57
2019-03-04T17:01:56.536Z,35.44
2019-03-04T17:06:53.512Z,35.72
2019-03-04T17:11:50.549Z,36.42
2019-03-04T17:16:47.648Z,36.59
2019-03-04T17:21:44.715Z,36.25
2019-03-04T17:26:41.770Z,36.05
2019-03-04T17:31:38.867Z,36.00
2019-03-04T17:36:36.269Z,36.08
2019-03-04T17:41:33.180Z,35.99
2019-03-04T17:46:30.313Z,36.44
2019-03-04T17:51:27.364Z,36.24
2019-03-04T17:56:24.810Z,36.10
2019-03-04T18:01:22.224Z,36.40
2019-03-04T18:06:23.867Z,35.93
2019-03-04T18:11:20.903Z,36.01
2019-03-04T18:16:18.557Z,35.60
2019-03-04T18:21:17.429Z,35.90
2019-03-04T18:26:19.612Z,35.70
2019-03-04T18:31:58.881Z,35.44
2019-03-04T18:37:06.758Z,35.42
2019-03-04T18:42:45.576Z,35.44
2019-03-04T18:47:56.666Z,35.30
2019-03-04T18:52:55.745Z,35.14
2019-03-04T18:57:52.772Z,34.83
2019-03-04T19:02:49.788Z,34.66
2019-03-04T19:07:46.826Z,34.70
2019-03-04T19:12:43.835Z,34.69
2019-03-04T19:17:40.936Z,34.37
2019-03-04T19:22:38.074Z,34.24
2019-03-04T19:27:35.576Z,33.95
2019-03-04T19:32:32.645Z,34.25
2019-03-04T19:37:29.741Z,33.77
2019-03-04T19:42:26.725Z,33.91
2019-03-04T19:47:23.763Z,34.04
2019-03-04T19:52:20.820Z,33.61
2019-03-04T19:57:18.083Z,33.38
2019-03-04T20:02:15.481Z,33.69
2019-03-04T20:07:12.931Z,33.32
2019-03-04T20:12:10.541Z,33.30
2019-03-04T20:17:07.621Z,33.35
2019-03-04T20:22:04.657Z,33.15
2019-03-04T20:27:01.654Z,33.56
2019-03-04T20:31:58.909Z,33.01
2019-03-04T20:36:55.906Z,32.98
2019-03-04T20:41:52.897Z,32.83
2019-03-04T20:46:50.185Z,33.06
2019-03-04T20:51:47.199Z,32.89
2019-03-04T20:56:44.306Z,32.88
2019-03-04T21:01:41.330Z,32.71
2019-03-04T21:06:38.396Z,32.70
2019-03-04T21:11:35.473Z,32.77
2019-03-04T21:16:32.512Z,32.13
2019-03-04T21:21:29.487Z,32.17
2019-03-04T21:26:27.029Z,32.04
2019-03-04T21:31:53.559Z,31.66
2019-03-04T21:37:17.219Z,31.85
2019-03-04T21:42:31.792Z,32.24
2019-03-04T21:47:37.084Z,32.44
2019-03-04T21:52:40.217Z,32.17
2019-03-04T21:57:43.732Z,32.05
2019-03-04T22:02:54.900Z,31.52
2019-03-04T22:07:51.961Z,32.19
2019-03-04T22:12:49.733Z,31.74
2019-03-04T22:17:46.802Z,32.00
2019-03-04T22:22:43.868Z,31.78
2019-03-04T22:27:40.882Z,31.61
2019-03-04T22:32:37.887Z,31.87
2019-03-04T22:37:34.971Z,32.24
2019-03-04T22:42:32.051Z,32.25
2019-03-04T22:47:29.189Z,32.68
2019-03-04T22:52:26.753Z,32.38
2019-03-04T22:57:23.784Z,32.79
2019-03-04T23:02:21.621Z,33.23
2019-03-04T23:07:18.718Z,33.02
2019-03-04T23:12:30.230Z,33.13
2019-03-04T23:17:27.279Z,33.26
2019-03-04T23:22:25.218Z,33.36
2019-03-04T23:27:22.258Z,33.75
2019-03-04T23:32:19.320Z,34.18
2019-03-04T23:37:16.278Z,34.11
2019-03-04T23:42:13.270Z,35.20
2019-03-04T23:47:10.215Z,43.36
2019-03-04T23:52:07.277Z,51.65
2019-03-04T23:57:07.359Z,54.95
